sensor_id;sensor_type;location;lat;lon;timestamp;P1;durP1;ratioP1;P2;durP2;ratioP2
44430;SDS011;30135;47.866;-4.222;2022-08-03T00:02:01;4.03;;;1.50;;
44430;SDS011;30135;47.866;-4.222;2022-08-03T00:04:28;8.95;;;1.70;;
44430;SDS011;30135;47.866;-4.222;2022-08-03T00:06:54;6.63;;;2.10;;
44430;SDS011;30135;47.866;-4.222;2022-08-03T00:09:26;4.13;;;1.52;;
44430;SDS011;30135;47.866;-4.222;2022-08-03T00:11:52;28.27;;;2.42;;
44430;SDS011;30135;47.866;-4.222;2022-08-03T00:14:18;7.05;;;1.83;;
44430;SDS011;30135;47.866;-4.222;2022-08-03T00:16:44;12.57;;;2.72;;
44430;SDS011;30135;47.866;-4.222;2022-08-03T00:19:10;6.10;;;1.70;;
44430;SDS011;30135;47.866;-4.222;2022-08-03T00:25:17;8.15;;;2.20;;
44430;SDS011;30135;47.866;-4.222;2022-08-03T00:27:43;13.10;;;2.55;;
44430;SDS011;30135;47.866;-4.222;2022-08-03T00:30:09;5.18;;;1.77;;
44430;SDS011;30135;47.866;-4.222;2022-08-03T00:32:36;7.70;;;2.42;;
44430;SDS011;30135;47.866;-4.222;2022-08-03T00:35:02;4.43;;;2.50;;
44430;SDS011;30135;47.866;-4.222;2022-08-03T00:37:29;7.82;;;2.30;;
44430;SDS011;30135;47.866;-4.222;2022-08-03T00:39:55;6.60;;;2.47;;
44430;SDS011;30135;47.866;-4.222;2022-08-03T00:42:21;5.97;;;2.60;;
44430;SDS011;30135;47.866;-4.222;2022-08-03T00:44:47;7.53;;;2.45;;
44430;SDS011;30135;47.866;-4.222;2022-08-03T00:47:13;6.80;;;2.42;;
44430;SDS011;30135;47.866;-4.222;2022-08-03T00:49:39;3.28;;;2.42;;
44430;SDS011;30135;47.866;-4.222;2022-08-03T00:52:07;6.63;;;2.20;;
44430;SDS011;30135;47.866;-4.222;2022-08-03T00:54:35;8.55;;;2.58;;
44430;SDS011;30135;47.866;-4.222;2022-08-03T00:57:02;5.95;;;2.83;;
44430;SDS011;30135;47.866;-4.222;2022-08-03T00:59:29;4.38;;;2.28;;
44430;SDS011;30135;47.866;-4.222;2022-08-03T01:01:55;4.72;;;2.75;;
44430;SDS011;30135;47.866;-4.222;2022-08-03T01:04:22;3.88;;;2.00;;
44430;SDS011;30135;47.866;-4.222;2022-08-03T01:06:49;4.97;;;2.38;;
44430;SDS011;30135;47.866;-4.222;2022-08-03T01:15:55;15.65;;;3.00;;
44430;SDS011;30135;47.866;-4.222;2022-08-03T01:19:48;4.35;;;1.98;;
44430;SDS011;30135;47.866;-4.222;2022-08-03T01:22:30;10.90;;;3.35;;
44430;SDS011;30135;47.866;-4.222;2022-08-03T01:25:27;5.57;;;2.65;;
44430;SDS011;30135;47.866;-4.222;2022-08-03T01:31:40;7.60;;;2.72;;
44430;SDS011;30135;47.866;-4.222;2022-08-03T01:34:13;10.85;;;2.58;;
44430;SDS011;30135;47.866;-4.222;2022-08-03T01:36:47;7.63;;;2.92;;
44430;SDS011;30135;47.866;-4.222;2022-08-03T01:39:18;11.50;;;2.35;;
44430;SDS011;30135;47.866;-4.222;2022-08-03T01:44:23;6.18;;;3.25;;
44430;SDS011;30135;47.866;-4.222;2022-08-03T01:46:54;10.85;;;3.05;;
44430;SDS011;30135;47.866;-4.222;2022-08-03T01:49:26;8.20;;;4.03;;
44430;SDS011;30135;47.866;-4.222;2022-08-03T01:51:55;6.43;;;2.15;;
44430;SDS011;30135;47.866;-4.222;2022-08-03T01:54:22;9.32;;;2.85;;
44430;SDS011;30135;47.866;-4.222;2022-08-03T01:56:50;6.32;;;2.58;;
44430;SDS011;30135;47.866;-4.222;2022-08-03T01:59:17;5.57;;;3.05;;
44430;SDS011;30135;47.866;-4.222;2022-08-03T02:01:51;7.53;;;2.60;;
44430;SDS011;30135;47.866;-4.222;2022-08-03T02:04:18;10.32;;;4.10;;
44430;SDS011;30135;47.866;-4.222;2022-08-03T02:06:46;7.03;;;2.30;;
44430;SDS011;30135;47.866;-4.222;2022-08-03T02:09:14;7.10;;;2.38;;
44430;SDS011;30135;47.866;-4.222;2022-08-03T02:11:50;5.97;;;2.50;;
44430;SDS011;30135;47.866;-4.222;2022-08-03T02:14:17;7.55;;;2.30;;
44430;SDS011;30135;47.866;-4.222;2022-08-03T02:16:44;9.98;;;2.33;;
44430;SDS011;30135;47.866;-4.222;2022-08-03T02:19:11;8.15;;;2.22;;
44430;SDS011;30135;47.866;-4.222;2022-08-03T02:21:37;6.00;;;2.10;;
44430;SDS011;30135;47.866;-4.222;2022-08-03T02:24:06;4.18;;;2.80;;
44430;SDS011;30135;47.866;-4.222;2022-08-03T02:26:33;15.15;;;3.30;;
44430;SDS011;30135;47.866;-4.222;2022-08-03T02:29:02;2.30;;;1.60;;
44430;SDS011;30135;47.866;-4.222;2022-08-03T02:31:36;3.38;;;1.98;;
44430;SDS011;30135;47.866;-4.222;2022-08-03T02:34:05;3.92;;;2.33;;
44430;SDS011;30135;47.866;-4.222;2022-08-03T02:36:37;7.15;;;2.05;;
44430;SDS011;30135;47.866;-4.222;2022-08-03T02:39:06;12.10;;;3.45;;
44430;SDS011;30135;47.866;-4.222;2022-08-03T02:41:37;4.63;;;2.05;;
44430;SDS011;30135;47.866;-4.222;2022-08-03T02:44:12;5.10;;;2.75;;
44430;SDS011;30135;47.866;-4.222;2022-08-03T02:46:40;5.43;;;2.25;;
44430;SDS011;30135;47.866;-4.222;2022-08-03T02:49:11;5.05;;;1.85;;
44430;SDS011;30135;47.866;-4.222;2022-08-03T02:51:38;4.20;;;2.22;;
44430;SDS011;30135;47.866;-4.222;2022-08-03T02:54:05;4.35;;;2.30;;
44430;SDS011;30135;47.866;-4.222;2022-08-03T02:56:33;11.52;;;2.90;;
44430;SDS011;30135;47.866;-4.222;2022-08-03T02:59:00;4.63;;;1.70;;
44430;SDS011;30135;47.866;-4.222;2022-08-03T03:01:27;5.80;;;1.70;;
44430;SDS011;30135;47.866;-4.222;2022-08-03T03:03:55;5.07;;;1.55;;
44430;SDS011;30135;47.866;-4.222;2022-08-03T03:06:23;4.35;;;2.42;;
44430;SDS011;30135;47.866;-4.222;2022-08-03T03:08:51;5.60;;;2.45;;
44430;SDS011;30135;47.866;-4.222;2022-08-03T03:11:18;4.97;;;2.22;;
44430;SDS011;30135;47.866;-4.222;2022-08-03T03:13:53;3.88;;;2.40;;
44430;SDS011;30135;47.866;-4.222;2022-08-03T03:16:21;7.07;;;2.22;;
44430;SDS011;30135;47.866;-4.222;2022-08-03T03:18:50;9.27;;;1.80;;
44430;SDS011;30135;47.866;-4.222;2022-08-03T03:21:18;3.25;;;1.25;;
44430;SDS011;30135;47.866;-4.222;2022-08-03T03:23:45;6.78;;;1.45;;
44430;SDS011;30135;47.866;-4.222;2022-08-03T03:26:13;14.13;;;2.85;;
44430;SDS011;30135;47.866;-4.222;2022-08-03T03:28:39;3.55;;;1.77;;
44430;SDS011;30135;47.866;-4.222;2022-08-03T03:31:06;4.72;;;1.77;;
44430;SDS011;30135;47.866;-4.222;2022-08-03T03:33:34;4.55;;;1.95;;
44430;SDS011;30135;47.866;-4.222;2022-08-03T03:36:01;7.85;;;1.70;;
44430;SDS011;30135;47.866;-4.222;2022-08-03T03:38:28;3.95;;;1.95;;
44430;SDS011;30135;47.866;-4.222;2022-08-03T03:40:54;7.35;;;2.05;;
44430;SDS011;30135;47.866;-4.222;2022-08-03T03:43:21;2.88;;;1.80;;
44430;SDS011;30135;47.866;-4.222;2022-08-03T03:45:49;5.82;;;2.58;;
44430;SDS011;30135;47.866;-4.222;2022-08-03T03:48:17;9.43;;;2.53;;
44430;SDS011;30135;47.866;-4.222;2022-08-03T03:50:43;7.63;;;2.45;;
44430;SDS011;30135;47.866;-4.222;2022-08-03T03:53:10;5.60;;;2.38;;
44430;SDS011;30135;47.866;-4.222;2022-08-03T03:55:38;6.88;;;2.22;;
44430;SDS011;30135;47.866;-4.222;2022-08-03T03:58:05;20.92;;;2.75;;
44430;SDS011;30135;47.866;-4.222;2022-08-03T04:00:32;9.63;;;2.38;;
44430;SDS011;30135;47.866;-4.222;2022-08-03T04:02:59;5.03;;;2.17;;
44430;SDS011;30135;47.866;-4.222;2022-08-03T04:05:25;6.65;;;2.22;;
44430;SDS011;30135;47.866;-4.222;2022-08-03T04:08:11;4.05;;;2.00;;
44430;SDS011;30135;47.866;-4.222;2022-08-03T04:13:43;8.15;;;3.05;;
44430;SDS011;30135;47.866;-4.222;2022-08-03T04:16:24;9.68;;;2.47;;
44430;SDS011;30135;47.866;-4.222;2022-08-03T04:18:56;13.93;;;3.35;;
44430;SDS011;30135;47.866;-4.222;2022-08-03T04:21:28;22.95;;;8.27;;
44430;SDS011;30135;47.866;-4.222;2022-08-03T04:23:57;16.30;;;5.50;;
44430;SDS011;30135;47.866;-4.222;2022-08-03T04:26:27;13.05;;;3.33;;
44430;SDS011;30135;47.866;-4.222;2022-08-03T04:28:58;9.65;;;2.97;;
44430;SDS011;30135;47.866;-4.222;2022-08-03T04:31:25;3.30;;;2.10;;
44430;SDS011;30135;47.866;-4.222;2022-08-03T04:33:52;13.75;;;1.67;;
44430;SDS011;30135;47.866;-4.222;2022-08-03T04:36:20;7.38;;;2.58;;
44430;SDS011;30135;47.866;-4.222;2022-08-03T04:39:02;5.95;;;1.65;;
44430;SDS011;30135;47.866;-4.222;2022-08-03T04:41:45;7.57;;;2.50;;
44430;SDS011;30135;47.866;-4.222;2022-08-03T04:44:13;7.10;;;3.05;;
44430;SDS011;30135;47.866;-4.222;2022-08-03T04:46:41;4.63;;;2.38;;
44430;SDS011;30135;47.866;-4.222;2022-08-03T04:49:08;6.43;;;2.00;;
44430;SDS011;30135;47.866;-4.222;2022-08-03T04:51:35;10.02;;;3.50;;
44430;SDS011;30135;47.866;-4.222;2022-08-03T04:54:04;10.45;;;2.92;;
44430;SDS011;30135;47.866;-4.222;2022-08-03T04:56:31;2.83;;;1.75;;
44430;SDS011;30135;47.866;-4.222;2022-08-03T04:58:58;8.55;;;2.35;;
44430;SDS011;30135;47.866;-4.222;2022-08-03T05:01:24;11.48;;;2.80;;
44430;SDS011;30135;47.866;-4.222;2022-08-03T05:03:50;5.47;;;2.33;;
44430;SDS011;30135;47.866;-4.222;2022-08-03T05:06:16;3.78;;;1.90;;
44430;SDS011;30135;47.866;-4.222;2022-08-03T05:08:42;7.95;;;1.95;;
44430;SDS011;30135;47.866;-4.222;2022-08-03T05:11:07;5.13;;;1.92;;
44430;SDS011;30135;47.866;-4.222;2022-08-03T05:13:33;10.00;;;1.63;;
44430;SDS011;30135;47.866;-4.222;2022-08-03T05:15:59;3.97;;;1.55;;
44430;SDS011;30135;47.866;-4.222;2022-08-03T05:18:32;6.07;;;1.25;;
44430;SDS011;30135;47.866;-4.222;2022-08-03T05:21:00;14.45;;;1.67;;
44430;SDS011;30135;47.866;-4.222;2022-08-03T05:23:26;2.53;;;1.23;;
44430;SDS011;30135;47.866;-4.222;2022-08-03T05:25:52;7.20;;;1.25;;
44430;SDS011;30135;47.866;-4.222;2022-08-03T05:28:17;3.47;;;1.42;;
44430;SDS011;30135;47.866;-4.222;2022-08-03T05:30:44;11.65;;;1.52;;
44430;SDS011;30135;47.866;-4.222;2022-08-03T05:33:10;4.60;;;1.38;;
44430;SDS011;30135;47.866;-4.222;2022-08-03T05:35:36;1.77;;;0.93;;
44430;SDS011;30135;47.866;-4.222;2022-08-03T05:38:05;6.18;;;1.10;;
44430;SDS011;30135;47.866;-4.222;2022-08-03T05:40:31;2.78;;;1.13;;
44430;SDS011;30135;47.866;-4.222;2022-08-03T05:42:57;4.72;;;1.58;;
44430;SDS011;30135;47.866;-4.222;2022-08-03T05:45:24;9.23;;;1.05;;
44430;SDS011;30135;47.866;-4.222;2022-08-03T05:47:50;5.40;;;1.80;;
44430;SDS011;30135;47.866;-4.222;2022-08-03T05:50:17;4.38;;;0.88;;
44430;SDS011;30135;47.866;-4.222;2022-08-03T05:52:44;2.25;;;0.68;;
44430;SDS011;30135;47.866;-4.222;2022-08-03T05:55:10;2.65;;;0.30;;
44430;SDS011;30135;47.866;-4.222;2022-08-03T05:57:38;3.72;;;0.57;;
44430;SDS011;30135;47.866;-4.222;2022-08-03T06:00:12;3.50;;;1.23;;
44430;SDS011;30135;47.866;-4.222;2022-08-03T06:02:39;2.78;;;0.68;;
44430;SDS011;30135;47.866;-4.222;2022-08-03T06:05:07;7.07;;;0.60;;
44430;SDS011;30135;47.866;-4.222;2022-08-03T06:07:34;3.15;;;0.50;;
44430;SDS011;30135;47.866;-4.222;2022-08-03T06:10:01;2.25;;;0.50;;
44430;SDS011;30135;47.866;-4.222;2022-08-03T06:12:28;2.30;;;0.70;;
44430;SDS011;30135;47.866;-4.222;2022-08-03T06:14:55;3.10;;;0.52;;
44430;SDS011;30135;47.866;-4.222;2022-08-03T06:17:21;2.50;;;0.60;;
44430;SDS011;30135;47.866;-4.222;2022-08-03T06:19:54;2.30;;;0.57;;
44430;SDS011;30135;47.866;-4.222;2022-08-03T06:22:20;0.70;;;0.40;;
44430;SDS011;30135;47.866;-4.222;2022-08-03T06:24:46;1.63;;;0.93;;
44430;SDS011;30135;47.866;-4.222;2022-08-03T06:27:13;6.80;;;1.35;;
44430;SDS011;30135;47.866;-4.222;2022-08-03T06:29:38;5.22;;;1.15;;
44430;SDS011;30135;47.866;-4.222;2022-08-03T06:32:04;8.23;;;1.13;;
44430;SDS011;30135;47.866;-4.222;2022-08-03T06:34:30;1.92;;;0.80;;
44430;SDS011;30135;47.866;-4.222;2022-08-03T06:36:56;2.40;;;1.00;;
44430;SDS011;30135;47.866;-4.222;2022-08-03T06:39:22;2.78;;;1.00;;
44430;SDS011;30135;47.866;-4.222;2022-08-03T06:41:48;5.93;;;0.95;;
44430;SDS011;30135;47.866;-4.222;2022-08-03T06:44:14;4.25;;;1.00;;
44430;SDS011;30135;47.866;-4.222;2022-08-03T06:46:40;6.10;;;1.10;;
44430;SDS011;30135;47.866;-4.222;2022-08-03T06:49:08;4.40;;;0.75;;
44430;SDS011;30135;47.866;-4.222;2022-08-03T06:51:34;2.35;;;0.68;;
44430;SDS011;30135;47.866;-4.222;2022-08-03T06:54:01;2.50;;;0.82;;
44430;SDS011;30135;47.866;-4.222;2022-08-03T06:56:27;2.78;;;0.70;;
44430;SDS011;30135;47.866;-4.222;2022-08-03T06:58:52;12.48;;;1.48;;
44430;SDS011;30135;47.866;-4.222;2022-08-03T07:01:18;12.75;;;0.85;;
44430;SDS011;30135;47.866;-4.222;2022-08-03T07:03:44;22.77;;;1.40;;
44430;SDS011;30135;47.866;-4.222;2022-08-03T07:06:10;25.42;;;2.63;;
44430;SDS011;30135;47.866;-4.222;2022-08-03T07:08:36;17.60;;;1.92;;
44430;SDS011;30135;47.866;-4.222;2022-08-03T07:11:02;5.28;;;0.93;;
44430;SDS011;30135;47.866;-4.222;2022-08-03T07:13:28;6.07;;;0.95;;
44430;SDS011;30135;47.866;-4.222;2022-08-03T07:15:56;9.60;;;0.93;;
44430;SDS011;30135;47.866;-4.222;2022-08-03T07:18:22;2.95;;;1.05;;
44430;SDS011;30135;47.866;-4.222;2022-08-03T07:20:55;5.53;;;0.90;;
44430;SDS011;30135;47.866;-4.222;2022-08-03T07:23:23;9.60;;;2.80;;
44430;SDS011;30135;47.866;-4.222;2022-08-03T07:25:53;4.10;;;1.33;;
44430;SDS011;30135;47.866;-4.222;2022-08-03T07:28:20;8.55;;;1.55;;
44430;SDS011;30135;47.866;-4.222;2022-08-03T07:30:46;9.93;;;1.50;;
44430;SDS011;30135;47.866;-4.222;2022-08-03T07:33:12;5.15;;;1.27;;
44430;SDS011;30135;47.866;-4.222;2022-08-03T07:35:39;7.15;;;0.80;;
44430;SDS011;30135;47.866;-4.222;2022-08-03T07:38:06;4.93;;;1.25;;
44430;SDS011;30135;47.866;-4.222;2022-08-03T07:40:34;4.65;;;0.93;;
44430;SDS011;30135;47.866;-4.222;2022-08-03T07:43:01;3.40;;;1.27;;
44430;SDS011;30135;47.866;-4.222;2022-08-03T07:45:30;8.98;;;1.63;;
44430;SDS011;30135;47.866;-4.222;2022-08-03T07:48:02;14.10;;;1.13;;
44430;SDS011;30135;47.866;-4.222;2022-08-03T07:50:31;7.10;;;1.30;;
44430;SDS011;30135;47.866;-4.222;2022-08-03T07:52:59;6.78;;;1.77;;
44430;SDS011;30135;47.866;-4.222;2022-08-03T07:55:25;4.35;;;1.23;;
44430;SDS011;30135;47.866;-4.222;2022-08-03T08:00:41;4.05;;;0.90;;
44430;SDS011;30135;47.866;-4.222;2022-08-03T08:03:10;8.35;;;1.08;;
44430;SDS011;30135;47.866;-4.222;2022-08-03T08:08:05;3.60;;;1.13;;
44430;SDS011;30135;47.866;-4.222;2022-08-03T08:10:32;7.40;;;1.10;;
44430;SDS011;30135;47.866;-4.222;2022-08-03T08:13:01;4.45;;;0.95;;
44430;SDS011;30135;47.866;-4.222;2022-08-03T08:15:31;8.07;;;0.77;;
44430;SDS011;30135;47.866;-4.222;2022-08-03T08:17:58;4.20;;;0.75;;
44430;SDS011;30135;47.866;-4.222;2022-08-03T08:20:31;11.35;;;1.90;;
44430;SDS011;30135;47.866;-4.222;2022-08-03T08:23:10;8.00;;;0.93;;
44430;SDS011;30135;47.866;-4.222;2022-08-03T08:25:36;7.82;;;0.65;;
44430;SDS011;30135;47.866;-4.222;2022-08-03T08:28:03;6.15;;;0.90;;
44430;SDS011;30135;47.866;-4.222;2022-08-03T08:30:31;4.95;;;1.13;;
44430;SDS011;30135;47.866;-4.222;2022-08-03T08:32:58;3.22;;;0.55;;
44430;SDS011;30135;47.866;-4.222;2022-08-03T08:35:26;8.35;;;0.75;;
44430;SDS011;30135;47.866;-4.222;2022-08-03T08:37:52;2.88;;;0.80;;
44430;SDS011;30135;47.866;-4.222;2022-08-03T08:40:23;2.80;;;0.60;;
44430;SDS011;30135;47.866;-4.222;2022-08-03T08:42:50;7.70;;;0.57;;
44430;SDS011;30135;47.866;-4.222;2022-08-03T08:45:17;5.55;;;0.80;;
44430;SDS011;30135;47.866;-4.222;2022-08-03T08:47:45;9.20;;;1.13;;
44430;SDS011;30135;47.866;-4.222;2022-08-03T08:50:18;3.83;;;0.95;;
44430;SDS011;30135;47.866;-4.222;2022-08-03T08:52:48;6.47;;;1.20;;
44430;SDS011;30135;47.866;-4.222;2022-08-03T08:55:20;7.70;;;1.42;;
44430;SDS011;30135;47.866;-4.222;2022-08-03T08:57:51;9.48;;;1.05;;
44430;SDS011;30135;47.866;-4.222;2022-08-03T09:00:26;9.73;;;1.02;;
44430;SDS011;30135;47.866;-4.222;2022-08-03T09:02:54;3.17;;;0.82;;
44430;SDS011;30135;47.866;-4.222;2022-08-03T09:05:21;13.30;;;1.60;;
44430;SDS011;30135;47.866;-4.222;2022-08-03T09:07:49;3.85;;;0.50;;
44430;SDS011;30135;47.866;-4.222;2022-08-03T09:10:17;3.60;;;1.05;;
44430;SDS011;30135;47.866;-4.222;2022-08-03T09:12:47;4.97;;;1.27;;
44430;SDS011;30135;47.866;-4.222;2022-08-03T09:15:29;4.38;;;0.85;;
44430;SDS011;30135;47.866;-4.222;2022-08-03T09:17:58;6.85;;;0.73;;
44430;SDS011;30135;47.866;-4.222;2022-08-03T09:20:31;5.28;;;0.73;;
44430;SDS011;30135;47.866;-4.222;2022-08-03T09:23:03;1.52;;;0.80;;
44430;SDS011;30135;47.866;-4.222;2022-08-03T09:25:42;8.57;;;1.05;;
44430;SDS011;30135;47.866;-4.222;2022-08-03T09:28:16;3.47;;;1.02;;
44430;SDS011;30135;47.866;-4.222;2022-08-03T09:30:44;5.97;;;0.82;;
44430;SDS011;30135;47.866;-4.222;2022-08-03T09:33:23;8.60;;;1.45;;
44430;SDS011;30135;47.866;-4.222;2022-08-03T09:35:50;6.50;;;1.42;;
44430;SDS011;30135;47.866;-4.222;2022-08-03T09:38:21;4.22;;;0.70;;
44430;SDS011;30135;47.866;-4.222;2022-08-03T09:43:18;8.52;;;1.08;;
44430;SDS011;30135;47.866;-4.222;2022-08-03T09:45:46;5.70;;;0.85;;
44430;SDS011;30135;47.866;-4.222;2022-08-03T09:48:23;6.25;;;0.77;;
44430;SDS011;30135;47.866;-4.222;2022-08-03T09:50:52;7.38;;;0.98;;
44430;SDS011;30135;47.866;-4.222;2022-08-03T09:53:21;6.95;;;1.10;;
44430;SDS011;30135;47.866;-4.222;2022-08-03T09:56:06;9.50;;;0.80;;
44430;SDS011;30135;47.866;-4.222;2022-08-03T09:58:33;4.05;;;1.17;;
44430;SDS011;30135;47.866;-4.222;2022-08-03T10:01:12;4.53;;;1.40;;
44430;SDS011;30135;47.866;-4.222;2022-08-03T10:03:38;9.55;;;1.67;;
44430;SDS011;30135;47.866;-4.222;2022-08-03T10:06:14;4.97;;;1.00;;
44430;SDS011;30135;47.866;-4.222;2022-08-03T10:11:11;18.33;;;2.22;;
44430;SDS011;30135;47.866;-4.222;2022-08-03T10:13:56;4.97;;;0.95;;
44430;SDS011;30135;47.866;-4.222;2022-08-03T10:16:22;5.97;;;2.55;;
44430;SDS011;30135;47.866;-4.222;2022-08-03T10:18:48;8.35;;;1.42;;
44430;SDS011;30135;47.866;-4.222;2022-08-03T10:21:15;7.88;;;1.25;;
44430;SDS011;30135;47.866;-4.222;2022-08-03T10:23:43;3.70;;;0.80;;
44430;SDS011;30135;47.866;-4.222;2022-08-03T10:26:17;7.82;;;1.10;;
44430;SDS011;30135;47.866;-4.222;2022-08-03T10:28:47;6.07;;;0.90;;
44430;SDS011;30135;47.866;-4.222;2022-08-03T10:31:14;3.55;;;0.73;;
44430;SDS011;30135;47.866;-4.222;2022-08-03T10:33:43;12.80;;;1.73;;
44430;SDS011;30135;47.866;-4.222;2022-08-03T10:36:13;5.55;;;0.80;;
44430;SDS011;30135;47.866;-4.222;2022-08-03T10:38:46;6.68;;;1.15;;
44430;SDS011;30135;47.866;-4.222;2022-08-03T10:41:21;8.35;;;0.80;;
44430;SDS011;30135;47.866;-4.222;2022-08-03T10:46:38;14.00;;;1.17;;
44430;SDS011;30135;47.866;-4.222;2022-08-03T10:49:06;17.55;;;2.60;;
44430;SDS011;30135;47.866;-4.222;2022-08-03T10:51:34;8.32;;;1.15;;
44430;SDS011;30135;47.866;-4.222;2022-08-03T10:54:00;10.45;;;3.88;;
44430;SDS011;30135;47.866;-4.222;2022-08-03T10:59:17;4.35;;;0.80;;
44430;SDS011;30135;47.866;-4.222;2022-08-03T11:02:02;4.68;;;1.00;;
44430;SDS011;30135;47.866;-4.222;2022-08-03T11:04:32;4.35;;;1.33;;
44430;SDS011;30135;47.866;-4.222;2022-08-03T11:09:52;8.68;;;0.93;;
44430;SDS011;30135;47.866;-4.222;2022-08-03T11:14:54;12.50;;;1.98;;
44430;SDS011;30135;47.866;-4.222;2022-08-03T11:17:21;8.57;;;2.70;;
44430;SDS011;30135;47.866;-4.222;2022-08-03T11:19:51;4.97;;;1.30;;
44430;SDS011;30135;47.866;-4.222;2022-08-03T11:22:18;5.50;;;1.20;;
44430;SDS011;30135;47.866;-4.222;2022-08-03T11:27:26;4.70;;;1.20;;
44430;SDS011;30135;47.866;-4.222;2022-08-03T11:38:01;14.48;;;0.88;;
44430;SDS011;30135;47.866;-4.222;2022-08-03T11:40:33;18.05;;;2.05;;
44430;SDS011;30135;47.866;-4.222;2022-08-03T11:48:39;6.03;;;0.85;;
44430;SDS011;30135;47.866;-4.222;2022-08-03T11:51:23;14.35;;;1.88;;
44430;SDS011;30135;47.866;-4.222;2022-08-03T11:53:56;16.10;;;1.90;;
44430;SDS011;30135;47.866;-4.222;2022-08-03T11:58:53;8.10;;;1.17;;
44430;SDS011;30135;47.866;-4.222;2022-08-03T12:01:22;18.13;;;2.40;;
44430;SDS011;30135;47.866;-4.222;2022-08-03T12:03:49;11.70;;;1.20;;
44430;SDS011;30135;47.866;-4.222;2022-08-03T12:06:16;8.52;;;1.65;;
44430;SDS011;30135;47.866;-4.222;2022-08-03T12:08:44;16.08;;;2.50;;
44430;SDS011;30135;47.866;-4.222;2022-08-03T12:11:12;9.20;;;2.58;;
44430;SDS011;30135;47.866;-4.222;2022-08-03T12:13:41;13.88;;;1.25;;
44430;SDS011;30135;47.866;-4.222;2022-08-03T12:16:22;6.85;;;1.50;;
44430;SDS011;30135;47.866;-4.222;2022-08-03T12:21:23;13.23;;;0.80;;
44430;SDS011;30135;47.866;-4.222;2022-08-03T12:23:50;10.60;;;1.40;;
44430;SDS011;30135;47.866;-4.222;2022-08-03T12:26:23;8.63;;;1.35;;
44430;SDS011;30135;47.866;-4.222;2022-08-03T12:28:55;15.45;;;1.25;;
44430;SDS011;30135;47.866;-4.222;2022-08-03T12:31:22;12.05;;;1.83;;
44430;SDS011;30135;47.866;-4.222;2022-08-03T12:36:32;15.48;;;2.97;;
44430;SDS011;30135;47.866;-4.222;2022-08-03T12:39:03;10.43;;;1.08;;
44430;SDS011;30135;47.866;-4.222;2022-08-03T12:41:33;11.68;;;2.85;;
44430;SDS011;30135;47.866;-4.222;2022-08-03T12:44:02;18.08;;;1.80;;
44430;SDS011;30135;47.866;-4.222;2022-08-03T12:46:34;8.90;;;1.05;;
44430;SDS011;30135;47.866;-4.222;2022-08-03T12:51:37;10.15;;;1.88;;
44430;SDS011;30135;47.866;-4.222;2022-08-03T12:54:20;9.30;;;1.13;;
44430;SDS011;30135;47.866;-4.222;2022-08-03T12:59:32;9.77;;;0.98;;
44430;SDS011;30135;47.866;-4.222;2022-08-03T13:04:29;8.55;;;0.80;;
44430;SDS011;30135;47.866;-4.222;2022-08-03T13:09:29;4.75;;;0.70;;
44430;SDS011;30135;47.866;-4.222;2022-08-03T13:12:09;20.25;;;1.13;;
44430;SDS011;30135;47.866;-4.222;2022-08-03T13:14:51;13.80;;;1.80;;
44430;SDS011;30135;47.866;-4.222;2022-08-03T13:17:20;3.17;;;0.90;;
44430;SDS011;30135;47.866;-4.222;2022-08-03T13:19:46;12.25;;;1.35;;
44430;SDS011;30135;47.866;-4.222;2022-08-03T13:22:13;6.90;;;0.98;;
44430;SDS011;30135;47.866;-4.222;2022-08-03T13:24:42;8.10;;;1.30;;
44430;SDS011;30135;47.866;-4.222;2022-08-03T13:27:11;3.22;;;0.68;;
44430;SDS011;30135;47.866;-4.222;2022-08-03T13:29:43;13.48;;;0.70;;
44430;SDS011;30135;47.866;-4.222;2022-08-03T13:32:10;10.93;;;2.00;;
44430;SDS011;30135;47.866;-4.222;2022-08-03T13:34:36;21.67;;;1.50;;
44430;SDS011;30135;47.866;-4.222;2022-08-03T13:37:02;7.97;;;0.63;;
44430;SDS011;30135;47.866;-4.222;2022-08-03T13:39:30;3.33;;;0.57;;
44430;SDS011;30135;47.866;-4.222;2022-08-03T13:41:56;8.55;;;1.08;;
44430;SDS011;30135;47.866;-4.222;2022-08-03T13:44:22;3.97;;;1.55;;
44430;SDS011;30135;47.866;-4.222;2022-08-03T13:46:48;4.68;;;0.50;;
44430;SDS011;30135;47.866;-4.222;2022-08-03T13:49:14;8.45;;;1.27;;
44430;SDS011;30135;47.866;-4.222;2022-08-03T13:51:40;6.07;;;0.77;;
44430;SDS011;30135;47.866;-4.222;2022-08-03T13:54:07;1.02;;;0.30;;
44430;SDS011;30135;47.866;-4.222;2022-08-03T13:56:47;3.30;;;1.05;;
44430;SDS011;30135;47.866;-4.222;2022-08-03T13:59:33;1.42;;;0.47;;
44430;SDS011;30135;47.866;-4.222;2022-08-03T14:01:59;4.55;;;1.38;;
44430;SDS011;30135;47.866;-4.222;2022-08-03T14:04:25;3.10;;;0.25;;
44430;SDS011;30135;47.866;-4.222;2022-08-03T14:06:52;4.28;;;0.73;;
44430;SDS011;30135;47.866;-4.222;2022-08-03T14:09:18;2.28;;;0.77;;
44430;SDS011;30135;47.866;-4.222;2022-08-03T14:11:44;3.70;;;0.70;;
44430;SDS011;30135;47.866;-4.222;2022-08-03T14:14:10;4.18;;;1.08;;
44430;SDS011;30135;47.866;-4.222;2022-08-03T14:16:38;3.45;;;0.40;;
44430;SDS011;30135;47.866;-4.222;2022-08-03T14:19:04;5.22;;;0.47;;
44430;SDS011;30135;47.866;-4.222;2022-08-03T14:21:32;4.47;;;0.75;;
44430;SDS011;30135;47.866;-4.222;2022-08-03T14:23:59;7.43;;;1.00;;
44430;SDS011;30135;47.866;-4.222;2022-08-03T14:26:26;1.25;;;0.40;;
44430;SDS011;30135;47.866;-4.222;2022-08-03T14:28:52;5.93;;;0.60;;
44430;SDS011;30135;47.866;-4.222;2022-08-03T14:31:18;7.15;;;0.85;;
44430;SDS011;30135;47.866;-4.222;2022-08-03T14:33:44;8.50;;;0.60;;
44430;SDS011;30135;47.866;-4.222;2022-08-03T14:36:10;9.25;;;0.82;;
44430;SDS011;30135;47.866;-4.222;2022-08-03T14:38:36;4.55;;;1.23;;
44430;SDS011;30135;47.866;-4.222;2022-08-03T14:41:02;9.30;;;0.50;;
44430;SDS011;30135;47.866;-4.222;2022-08-03T14:43:29;4.30;;;0.88;;
44430;SDS011;30135;47.866;-4.222;2022-08-03T14:45:55;3.85;;;0.77;;
44430;SDS011;30135;47.866;-4.222;2022-08-03T14:48:22;0.98;;;0.50;;
44430;SDS011;30135;47.866;-4.222;2022-08-03T14:50:49;14.73;;;0.80;;
44430;SDS011;30135;47.866;-4.222;2022-08-03T14:53:16;9.90;;;1.00;;
44430;SDS011;30135;47.866;-4.222;2022-08-03T14:55:43;3.72;;;0.40;;
44430;SDS011;30135;47.866;-4.222;2022-08-03T14:58:10;11.10;;;1.70;;
44430;SDS011;30135;47.866;-4.222;2022-08-03T15:00:43;2.63;;;0.63;;
44430;SDS011;30135;47.866;-4.222;2022-08-03T15:03:09;10.20;;;0.70;;
44430;SDS011;30135;47.866;-4.222;2022-08-03T15:05:35;4.10;;;0.65;;
44430;SDS011;30135;47.866;-4.222;2022-08-03T15:08:01;13.07;;;1.42;;
44430;SDS011;30135;47.866;-4.222;2022-08-03T15:10:27;2.70;;;0.70;;
44430;SDS011;30135;47.866;-4.222;2022-08-03T15:12:55;3.53;;;1.00;;
44430;SDS011;30135;47.866;-4.222;2022-08-03T15:15:21;4.67;;;0.67;;
44430;SDS011;30135;47.866;-4.222;2022-08-03T15:17:47;7.30;;;0.68;;
44430;SDS011;30135;47.866;-4.222;2022-08-03T15:20:13;3.00;;;0.50;;
44430;SDS011;30135;47.866;-4.222;2022-08-03T15:22:39;7.93;;;0.45;;
44430;SDS011;30135;47.866;-4.222;2022-08-03T15:25:06;20.88;;;1.50;;
44430;SDS011;30135;47.866;-4.222;2022-08-03T15:27:32;12.10;;;0.50;;
44430;SDS011;30135;47.866;-4.222;2022-08-03T15:29:58;9.02;;;0.73;;
44430;SDS011;30135;47.866;-4.222;2022-08-03T15:32:24;3.90;;;0.55;;
44430;SDS011;30135;47.866;-4.222;2022-08-03T15:34:49;6.18;;;1.23;;
44430;SDS011;30135;47.866;-4.222;2022-08-03T15:37:16;2.10;;;0.60;;
44430;SDS011;30135;47.866;-4.222;2022-08-03T15:39:44;7.03;;;0.77;;
44430;SDS011;30135;47.866;-4.222;2022-08-03T15:42:10;5.00;;;1.23;;
44430;SDS011;30135;47.866;-4.222;2022-08-03T15:44:36;1.38;;;0.47;;
44430;SDS011;30135;47.866;-4.222;2022-08-03T15:47:02;3.42;;;1.33;;
44430;SDS011;30135;47.866;-4.222;2022-08-03T15:49:28;8.52;;;1.20;;
44430;SDS011;30135;47.866;-4.222;2022-08-03T15:51:54;7.28;;;1.02;;
44430;SDS011;30135;47.866;-4.222;2022-08-03T15:54:19;7.82;;;1.33;;
44430;SDS011;30135;47.866;-4.222;2022-08-03T15:56:45;12.65;;;1.10;;